Coleville, Canada
Current Conditions -  °F | °C
As of 11:00 PM on Thursday 30 Oct 2014 (Local Time) from CYKY Reporting Station
Overcast Overcast  
Wind Chill: 19°   Ceiling: 800
Heat Index: 32°   Visibility: 15mi
Dew Point: 28°   Wind: 24mph
Humidity: 87%   Direction: 150°SSE
Pressure: 30.15"   Gusts: 33mph
Location:  51.7°N, 109.23°W
Report Text: CYKY 310500Z 15021G29KT 15SM OVC008 00/M02 A3015 RMK SC8 SLP240
Loading
Personal Weather Stations






























Interactive Weather Map
Tropical Storm Tracking
New forecast layout! Learn more

10-Day Weather Forecast

Advertisements
Track Severe Weather on mobile